Time;durP1;ratioP1;P1;durP2;ratioP2;P2;SDS_P1;SDS_P2;PMS_P1;PMS_P2;Temp;Humidity;BMP_temperature;BMP_pressure;BME280_temperature;BME280_humidity;BME280_pressure;Samples;Min_cycle;Max_cycle;Signal;HPM_P1;HPM_P2
2022/11/29 00:00:20;;;;;;;;;5.50;3.00;;;;;9.91;75.79;100761.88;5075007;27;47832;-64
2022/11/29 00:02:45;;;;;;;;;6.75;4.50;;;;;9.97;75.90;100773.97;5076570;27;45335;-64
2022/11/29 00:05:10;;;;;;;;;5.75;5.25;;;;;9.90;75.81;100770.78;5076081;28;45475;-64
2022/11/29 00:07:36;;;;;;;;;6.00;5.25;;;;;9.95;75.83;100774.06;5076972;28;45532;-65
2022/11/29 00:10:01;;;;;;;;;5.25;5.25;;;;;9.97;75.87;100781.94;5070877;27;45562;-64
2022/11/29 00:12:26;;;;;;;;;5.25;3.00;;;;;9.95;76.13;100786.50;5056092;28;45376;-65
2022/11/29 00:14:52;;;;;;;;;5.00;5.00;;;;;9.87;76.38;100775.38;5079016;27;49283;-64
2022/11/29 00:17:17;;;;;;;;;8.00;6.00;;;;;9.90;76.26;100783.22;5070325;27;45566;-64
2022/11/29 00:19:46;;;;;;;;;6.75;5.75;;;;;9.85;76.27;100779.91;5056376;27;46358;-65
2022/11/29 00:22:11;;;;;;;;;4.50;4.50;;;;;9.78;76.50;100771.41;5057408;27;45632;-63
2022/11/29 00:24:37;;;;;;;;;6.50;6.50;;;;;9.71;76.69;100775.28;5076294;27;45395;-65
2022/11/29 00:27:03;;;;;;;;;5.00;5.00;;;;;9.72;76.38;100783.19;5068605;27;45606;-63
2022/11/29 00:29:29;;;;;;;;;4.25;4.00;;;;;9.69;76.69;100782.47;5071582;28;45982;-64
2022/11/29 00:31:55;;;;;;;;;10.50;6.00;;;;;9.68;76.56;100786.06;5070106;28;45465;-64
2022/11/29 00:34:20;;;;;;;;;7.50;5.75;;;;;9.63;77.34;100788.94;5056232;27;45387;-64
2022/11/29 00:36:46;;;;;;;;;5.50;5.00;;;;;9.61;76.74;100797.91;5090194;27;45402;-64
2022/11/29 00:39:12;;;;;;;;;5.00;5.00;;;;;9.60;76.89;100801.50;5075533;27;46061;-64
2022/11/29 00:41:38;;;;;;;;;5.50;5.25;;;;;9.58;77.09;100795.41;5075927;27;45687;-63
2022/11/29 00:44:03;;;;;;;;;5.00;5.00;;;;;9.56;76.63;100795.50;5069824;27;45319;-64
2022/11/29 00:46:29;;;;;;;;;7.25;6.00;;;;;9.54;76.97;100796.50;5065358;27;45541;-65
2022/11/29 00:48:54;;;;;;;;;2.00;2.00;;;;;9.53;78.21;100802.75;5066030;28;45240;-66
2022/11/29 00:51:20;;;;;;;;;6.25;5.00;;;;;9.53;77.55;100802.75;5069513;27;45195;-64
2022/11/29 00:53:45;;;;;;;;;5.00;5.00;;;;;9.50;77.32;100803.72;5096959;27;45337;-64
2022/11/29 00:56:11;;;;;;;;;2.25;1.50;;;;;9.46;77.33;100789.75;5083667;27;45587;-63
2022/11/29 00:58:37;;;;;;;;;7.00;5.00;;;;;9.51;77.69;100799.31;5075049;27;46210;-65
2022/11/29 01:01:03;;;;;;;;;7.00;6.00;;;;;9.48;77.32;100789.69;5057689;27;45377;-64
2022/11/29 01:03:29;;;;;;;;;5.00;2.75;;;;;9.40;78.31;100786.56;5058906;27;45518;-64
2022/11/29 01:06:06;;;;;;;;;6.00;5.00;;;;;9.48;78.27;100789.69;5068029;27;46736;-66
2022/11/29 01:08:32;;;;;;;;;6.00;6.00;;;;;9.50;78.04;100798.41;5059252;28;47230;-64
2022/11/29 01:11:07;;;;;;;;;6.00;5.00;;;;;9.48;78.37;100788.81;5075867;27;45323;-65
2022/11/29 01:13:34;;;;;;;;;5.00;3.00;;;;;9.46;78.29;100800.38;5081868;27;45402;-64
2022/11/29 01:16:00;;;;;;;;;6.50;5.00;;;;;9.44;78.37;100798.72;5100078;27;45386;-64
2022/11/29 01:18:25;;;;;;;;;9.00;5.25;;;;;9.40;78.07;100792.72;5089362;27;46018;-63
2022/11/29 01:20:59;;;;;;;;;6.00;4.50;;;;;9.41;77.92;100793.56;5079462;28;45320;-65
2022/11/29 01:23:25;;;;;;;;;6.00;3.00;;;;;9.40;78.84;100798.03;5049487;28;45353;-64
2022/11/29 01:25:57;;;;;;;;;4.75;4.50;;;;;9.40;78.42;100803.34;5059228;28;45275;-64
2022/11/29 01:28:23;;;;;;;;;6.00;5.00;;;;;9.41;78.10;100815.69;5053437;27;45454;-65
2022/11/29 01:30:52;;;;;;;;;3.00;3.00;;;;;9.40;77.70;100813.09;5100861;27;45276;-65
2022/11/29 01:33:17;;;;;;;;;14.75;8.50;;;;;9.40;77.70;100811.31;5082352;27;45554;-66
2022/11/29 01:35:51;;;;;;;;;7.00;6.00;;;;;9.39;78.58;100806.94;5078204;27;45349;-63
2022/11/29 01:38:17;;;;;;;;;2.25;2.25;;;;;9.42;77.99;100805.91;5057907;28;46937;-63
2022/11/29 01:40:43;;;;;;;;;5.25;3.00;;;;;9.50;77.97;100819.66;5077609;27;45422;-63
2022/11/29 01:43:17;;;;;;;;;3.00;3.00;;;;;9.54;77.83;100820.41;5082884;27;45557;-65
2022/11/29 01:45:43;;;;;;;;;6.75;5.75;;;;;9.55;78.73;100828.28;5081128;27;45345;-64
2022/11/29 01:48:13;;;;;;;;;8.25;4.50;;;;;9.59;77.70;100831.66;5075870;27;46440;-64
2022/11/29 01:50:40;;;;;;;;;8.50;5.00;;;;;9.59;77.58;100829.00;5072903;27;45236;-65
2022/11/29 01:53:07;;;;;;;;;2.75;2.75;;;;;9.61;77.58;100832.44;5075029;27;45217;-63
2022/11/29 01:55:38;;;;;;;;;5.00;5.00;;;;;9.65;77.85;100844.66;5063238;27;45525;-63
2022/11/29 01:58:06;;;;;;;;;7.00;5.50;;;;;9.64;77.32;100842.94;5078145;27;45523;-64
2022/11/29 02:00:32;;;;;;;;;5.00;5.00;;;;;9.64;77.10;100843.78;5073641;27;45422;-62
2022/11/29 02:03:13;;;;;;;;;6.00;5.00;;;;;9.63;77.99;100842.03;5075641;27;45720;-63
2022/11/29 02:05:48;;;;;;;;;6.75;4.00;;;;;9.71;77.31;100849.66;5083264;27;45371;-63
2022/11/29 02:08:20;;;;;;;;;8.75;5.25;;;;;9.73;77.15;100847.78;5074662;27;45675;-64
2022/11/29 02:11:17;;;;;;;;;3.00;3.00;;;;;9.73;76.78;100853.09;5066519;27;45536;-66
2022/11/29 02:14:01;;;;;;;;;5.50;5.00;;;;;9.72;77.49;100851.38;5076001;27;45507;-64
2022/11/29 02:16:41;;;;;;;;;5.00;5.00;;;;;9.72;77.59;100852.22;5079267;27;45508;-63
2022/11/29 02:19:13;;;;;;;;;3.00;3.00;;;;;9.80;76.82;100849.22;5076193;27;47014;-64
2022/11/29 02:21:48;;;;;;;;;6.25;4.50;;;;;9.79;76.87;100862.56;5075877;27;45369;-63
2022/11/29 02:24:29;;;;;;;;;7.25;5.50;;;;;9.79;76.72;100858.13;5069714;27;45396;-64
2022/11/29 02:27:06;;;;;;;;;5.25;3.00;;;;;9.80;77.05;100854.53;5081832;27;45422;-64
2022/11/29 02:30:06;;;;;;;;;5.00;5.00;;;;;9.79;77.35;100855.47;5083303;27;46144;-65
2022/11/29 02:32:53;;;;;;;;;3.00;3.00;;;;;9.73;77.99;100853.09;5039830;28;45245;-66
2022/11/29 02:35:43;;;;;;;;;4.50;3.00;;;;;9.73;78.18;100853.94;5072790;27;45843;-65
2022/11/29 02:38:39;;;;;;;;;7.25;5.25;;;;;9.73;77.65;100858.41;5077318;27;45497;-64
2022/11/29 02:41:23;;;;;;;;;4.25;2.00;;;;;9.70;77.11;100858.56;5058918;28;47426;-65
2022/11/29 02:43:56;;;;;;;;;6.25;3.00;;;;;9.65;77.63;100865.88;5065048;28;45689;-65
2022/11/29 02:46:50;;;;;;;;;8.00;6.00;;;;;9.66;77.72;100862.28;5074461;27;45551;-64
2022/11/29 02:49:47;;;;;;;;;10.00;6.75;;;;;9.67;77.36;100866.66;5072646;27;45569;-63
2022/11/29 02:52:45;;;;;;;;;5.75;5.00;;;;;9.63;77.09;100870.38;5077548;28;46303;-64
2022/11/29 02:55:50;;;;;;;;;7.00;4.00;;;;;9.46;78.66;100872.06;5024462;28;45588;-64
2022/11/29 02:58:34;;;;;;;;;10.75;8.00;;;;;9.40;78.34;100882.13;5057344;27;45357;-63
2022/11/29 03:01:22;;;;;;;;;6.00;6.00;;;;;9.40;78.31;100882.97;5072864;27;45473;-63
2022/11/29 03:04:03;;;;;;;;;6.00;5.00;;;;;9.48;78.42;100871.13;5077038;27;46649;-63
2022/11/29 03:06:46;;;;;;;;;6.25;3.00;;;;;9.54;78.46;100873.50;5076798;27;45244;-63
2022/11/29 03:09:34;;;;;;;;;9.50;6.00;;;;;9.58;77.83;100880.38;5076166;27;45445;-63
2022/11/29 03:12:24;;;;;;;;;6.00;6.00;;;;;9.56;77.59;100882.25;5073276;27;45863;-63
2022/11/29 03:14:59;;;;;;;;;6.50;5.00;;;;;9.57;78.78;100886.63;5073253;27;46263;-64
2022/11/29 03:17:51;;;;;;;;;5.75;5.75;;;;;9.57;78.41;100890.13;5066712;27;45745;-64
2022/11/29 03:20:37;;;;;;;;;6.50;5.00;;;;;9.53;78.11;100887.72;5057921;27;45399;-64
2022/11/29 03:23:30;;;;;;;;;8.00;6.25;;;;;9.48;78.48;100889.69;5061226;27;45522;-64
2022/11/29 03:26:17;;;;;;;;;11.00;7.00;;;;;9.55;78.33;100899.97;5076345;27;46378;-64
2022/11/29 03:29:06;;;;;;;;;10.75;8.25;;;;;9.52;77.94;100880.69;5060798;27;45529;-64
2022/11/29 03:31:34;;;;;;;;;9.00;6.50;;;;;9.55;77.94;100896.47;5076512;27;45867;-64
2022/11/29 03:34:19;;;;;;;;;8.25;7.00;;;;;9.55;77.95;100901.78;5073598;27;45423;-62
2022/11/29 03:36:56;;;;;;;;;10.75;8.75;;;;;9.46;78.36;100885.31;5056379;28;46578;-64
2022/11/29 03:39:43;;;;;;;;;5.25;5.00;;;;;9.49;78.08;100899.38;5061616;27;45390;-64
2022/11/29 03:42:33;;;;;;;;;7.50;6.75;;;;;9.42;78.36;100896.16;5082115;27;45319;-64
2022/11/29 03:45:07;;;;;;;;;9.25;8.00;;;;;9.49;78.30;100910.00;5065136;27;45771;-64
2022/11/29 03:47:39;;;;;;;;;8.50;6.25;;;;;9.45;78.10;100907.50;5056887;27;46227;-66
2022/11/29 03:50:17;;;;;;;;;7.00;7.00;;;;;9.44;78.53;100903.13;5072075;27;45456;-62
2022/11/29 03:52:51;;;;;;;;;7.50;6.75;;;;;9.54;77.62;100913.31;5056892;27;45911;-62
2022/11/29 03:55:40;;;;;;;;;11.50;8.25;;;;;9.52;78.42;100917.84;5067718;27;45401;-63
2022/11/29 03:58:17;;;;;;;;;10.50;10.25;;;;;9.50;78.58;100920.56;5065759;27;45323;-64
2022/11/29 04:00:48;;;;;;;;;8.75;8.50;;;;;9.53;78.03;100919.56;5051439;27;45464;-64
2022/11/29 04:03:51;;;;;;;;;14.75;14.00;;;;;9.54;78.24;100924.81;5075566;27;46817;-64
2022/11/29 04:06:29;;;;;;;;;10.25;10.25;;;;;9.53;78.17;100924.88;5065220;27;45468;-63
2022/11/29 04:09:26;;;;;;;;;18.50;10.75;;;;;9.48;78.45;100921.56;5068802;27;45318;-65
2022/11/29 04:12:19;;;;;;;;;10.50;10.25;;;;;9.50;78.32;100925.00;5073122;27;45357;-63
2022/11/29 04:14:44;;;;;;;;;10.25;10.25;;;;;9.52;78.50;100934.66;5075459;27;45595;-64
2022/11/29 04:17:24;;;;;;;;;13.75;8.75;;;;;9.49;77.84;100934.75;5077795;27;45972;-67
2022/11/29 04:19:59;;;;;;;;;9.25;6.25;;;;;9.49;78.41;100939.22;5075807;27;46677;-64
2022/11/29 04:22:30;;;;;;;;;12.00;11.25;;;;;9.48;78.62;100937.50;5078334;27;46035;-64
2022/11/29 04:25:08;;;;;;;;;12.75;10.25;;;;;9.49;78.86;100939.22;5059259;28;45407;-63
2022/11/29 04:27:52;;;;;;;;;10.00;10.00;;;;;9.44;78.73;100945.59;5066672;27;45596;-63
2022/11/29 04:30:23;;;;;;;;;11.50;7.25;;;;;9.41;79.22;100948.41;5059206;28;45398;-63
2022/11/29 04:33:16;;;;;;;;;9.00;8.25;;;;;9.41;78.57;100955.50;5055859;28;45440;-64
2022/11/29 04:36:28;;;;;;;;;13.75;13.25;;;;;9.44;78.50;100958.88;5056812;28;45413;-65
2022/11/29 04:39:14;;;;;;;;;7.75;6.75;;;;;9.43;78.46;100958.94;5080256;27;45445;-65
2022/11/29 04:41:49;;;;;;;;;14.25;12.00;;;;;9.45;78.42;100960.59;5077972;28;46263;-64
2022/11/29 04:44:33;;;;;;;;;14.75;14.75;;;;;9.48;78.93;100964.91;5059109;28;45411;-64
2022/11/29 04:46:58;;;;;;;;;12.00;9.50;;;;;9.52;78.58;100970.94;5079314;27;45695;-63
2022/11/29 04:49:51;;;;;;;;;15.75;15.75;;;;;9.50;78.50;100967.47;5059556;28;45563;-64
2022/11/29 04:52:53;;;;;;;;;20.00;16.00;;;;;9.50;77.94;100964.81;5059104;28;45462;-63
2022/11/29 04:55:22;;;;;;;;;11.25;11.25;;;;;9.48;79.11;100969.34;5059339;28;45182;-65
2022/11/29 04:57:54;;;;;;;;;17.00;14.00;;;;;9.45;78.19;100971.22;5058981;28;45233;-62
2022/11/29 05:00:23;;;;;;;;;14.75;11.75;;;;;9.46;79.03;100975.59;5063555;27;45534;-63
2022/11/29 05:02:55;;;;;;;;;17.25;15.50;;;;;9.48;78.69;100975.53;5057280;27;46737;-64
2022/11/29 05:05:41;;;;;;;;;16.50;15.00;;;;;9.53;78.07;100983.28;5075693;27;45516;-65
2022/11/29 05:08:44;;;;;;;;;16.00;12.00;;;;;9.44;78.65;100985.44;5076008;27;45623;-63
2022/11/29 05:11:20;;;;;;;;;14.00;14.00;;;;;9.42;77.84;100976.66;5068586;27;45652;-64
2022/11/29 05:13:55;;;;;;;;;10.00;7.50;;;;;9.50;78.91;100984.28;5063595;27;46181;-64
2022/11/29 05:16:36;;;;;;;;;17.25;15.50;;;;;9.52;78.07;100987.75;5050012;27;45393;-65
2022/11/29 05:19:28;;;;;;;;;16.25;11.00;;;;;9.54;78.21;100995.63;5058903;27;45360;-65
2022/11/29 05:22:11;;;;;;;;;16.50;14.75;;;;;9.48;78.28;100974.66;5072424;27;45505;-64
2022/11/29 05:24:55;;;;;;;;;18.00;14.00;;;;;9.58;78.25;100987.44;5078245;27;46106;-65
2022/11/29 05:27:42;;;;;;;;;20.00;15.00;;;;;9.59;78.01;100993.63;5077041;27;45467;-63
2022/11/29 05:30:17;;;;;;;;;16.50;14.50;;;;;9.60;77.64;101000.66;5077973;27;45242;-65
2022/11/29 05:33:04;;;;;;;;;15.25;12.00;;;;;9.60;77.55;101000.66;5062334;27;45564;-63
2022/11/29 05:35:52;;;;;;;;;12.50;11.50;;;;;9.62;78.33;101009.41;5080518;27;46195;-64
2022/11/29 05:38:54;;;;;;;;;13.25;10.50;;;;;9.63;77.55;101014.66;5080641;27;45465;-65
2022/11/29 05:41:26;;;;;;;;;13.25;10.00;;;;;9.67;77.53;101023.34;5070954;27;46185;-62
2022/11/29 05:44:13;;;;;;;;;17.50;13.50;;;;;9.67;78.17;101023.34;5071388;27;45161;-64
2022/11/29 05:46:56;;;;;;;;;13.75;12.25;;;;;9.67;77.89;101018.03;5057788;27;46903;-63
2022/11/29 05:49:38;;;;;;;;;16.50;14.75;;;;;9.70;77.38;101023.22;5067035;27;45545;-65
2022/11/29 05:52:23;;;;;;;;;14.75;14.75;;;;;9.69;78.08;101024.16;5078229;27;45255;-63
2022/11/29 05:54:55;;;;;;;;;17.50;16.25;;;;;9.74;76.95;101024.78;5077884;27;45461;-62
2022/11/29 05:57:21;;;;;;;;;15.25;14.00;;;;;9.75;77.84;101031.81;5078972;27;45450;-64
2022/11/29 05:59:49;;;;;;;;;10.25;10.00;;;;;9.77;77.62;101034.44;5077670;27;45311;-64
2022/11/29 06:02:42;;;;;;;;;16.50;13.25;;;;;9.76;77.02;101038.84;5079612;27;45571;-63
2022/11/29 06:05:38;;;;;;;;;19.25;17.25;;;;;9.78;77.67;101047.66;5040193;28;45374;-63
2022/11/29 06:08:12;;;;;;;;;17.50;15.25;;;;;9.78;77.69;101047.66;5053235;28;46278;-64
2022/11/29 06:10:51;;;;;;;;;13.25;13.25;;;;;9.73;78.01;101053.13;5077940;27;45580;-64
2022/11/29 06:13:41;;;;;;;;;17.25;16.00;;;;;9.70;78.05;101052.44;5074992;28;45368;-61
2022/11/29 06:16:22;;;;;;;;;18.75;17.00;;;;;9.63;77.70;101053.63;5073084;27;45434;-65
2022/11/29 06:19:25;;;;;;;;;19.25;15.75;;;;;9.64;77.52;101048.25;5060406;27;46336;-63
2022/11/29 06:21:58;;;;;;;;;21.00;19.00;;;;;9.59;77.87;101049.38;5077437;27;45228;-63
2022/11/29 06:24:40;;;;;;;;;14.50;14.50;;;;;9.56;78.42;101058.34;5076650;27;45239;-65
2022/11/29 06:27:43;;;;;;;;;14.75;13.25;;;;;9.56;77.90;101073.44;5078335;28;45243;-65
2022/11/29 06:30:13;;;;;;;;;10.25;9.00;;;;;9.51;78.51;101064.81;5066163;27;45386;-63
2022/11/29 06:32:42;;;;;;;;;19.00;18.50;;;;;9.48;78.06;101070.22;5059468;27;45449;-62
2022/11/29 06:35:31;;;;;;;;;19.00;15.75;;;;;9.42;78.45;101060.75;5061791;28;45359;-65
2022/11/29 06:38:02;;;;;;;;;23.25;19.75;;;;;9.36;78.33;101061.88;5059841;28;45871;-64
2022/11/29 06:40:27;;;;;;;;;23.50;19.25;;;;;9.23;78.92;101044.75;5076760;27;46116;-64
2022/11/29 06:42:53;;;;;;;;;18.50;15.00;;;;;9.39;78.93;101082.13;5060300;27;45620;-64
2022/11/29 06:45:20;;;;;;;;;16.75;15.25;;;;;9.38;77.97;101073.31;5075568;27;45442;-64
2022/11/29 06:47:54;;;;;;;;;21.25;16.25;;;;;9.39;79.20;101088.31;5078696;27;45572;-65
2022/11/29 06:50:28;;;;;;;;;20.75;17.25;;;;;9.38;79.35;101089.25;5077294;27;45371;-64
2022/11/29 06:52:59;;;;;;;;;20.50;19.25;;;;;9.36;78.68;101085.75;5075229;27;45525;-68
2022/11/29 06:55:43;;;;;;;;;33.00;28.00;;;;;9.32;78.84;101086.84;5075564;27;45596;-62
2022/11/29 06:58:34;;;;;;;;;26.00;20.50;;;;;9.33;78.87;101093.88;5073934;28;45513;-62
2022/11/29 07:01:05;;;;;;;;;25.50;25.00;;;;;9.26;79.05;101092.41;5065879;27;45664;-64
2022/11/29 07:03:43;;;;;;;;;17.50;17.50;;;;;9.21;79.17;101104.13;5057519;28;45335;-63
2022/11/29 07:06:27;;;;;;;;;22.75;19.25;;;;;9.20;79.15;101102.41;5096801;27;45221;-60
2022/11/29 07:09:03;;;;;;;;;21.50;18.50;;;;;9.20;79.60;101105.94;5098075;27;45395;-62
2022/11/29 07:11:28;;;;;;;;;24.75;22.00;;;;;9.18;78.80;101110.44;5086725;27;47124;-61
2022/11/29 07:13:54;;;;;;;;;26.00;23.00;;;;;9.15;78.82;101113.22;5093607;27;45380;-62
2022/11/29 07:16:19;;;;;;;;;22.75;21.25;;;;;9.13;78.85;101117.75;5064120;27;45355;-63
2022/11/29 07:18:54;;;;;;;;;23.50;23.50;;;;;9.11;79.56;101120.47;5048484;28;45421;-63
2022/11/29 07:21:28;;;;;;;;;23.75;21.00;;;;;9.08;79.33;101120.56;5073022;28;46138;-61
2022/11/29 07:24:32;;;;;;;;;26.25;24.50;;;;;9.12;80.11;101121.34;5072983;27;45399;-63
2022/11/29 07:27:20;;;;;;;;;29.25;21.25;;;;;9.18;79.51;101115.75;5053885;27;45211;-62
2022/11/29 07:30:08;;;;;;;;;31.00;27.75;;;;;9.18;78.46;101122.84;5077788;28;45437;-62
2022/11/29 07:33:24;;;;;;;;;23.75;23.50;;;;;9.19;78.83;101127.22;5066570;28;46065;-63
2022/11/29 07:36:12;;;;;;;;;35.50;26.75;;;;;9.18;79.00;101128.16;5011692;28;45535;-62
2022/11/29 07:38:50;;;;;;;;;35.75;27.75;;;;;9.16;79.03;101129.09;5046990;28;45361;-62
2022/11/29 07:41:38;;;;;;;;;32.50;27.50;;;;;9.11;79.18;101125.78;5057128;28;45587;-61
2022/11/29 07:44:27;;;;;;;;;39.75;33.75;;;;;9.09;78.65;101127.59;5056608;28;45379;-61
2022/11/29 07:46:53;;;;;;;;;35.00;28.75;;;;;9.03;77.97;101129.66;5072885;27;45390;-62
2022/11/29 07:49:18;;;;;;;;;34.75;32.25;;;;;9.10;78.42;101155.00;5066445;27;45548;-62
2022/11/29 07:51:44;;;;;;;;;36.25;28.75;;;;;9.12;77.48;101143.41;5049927;27;45235;-63
2022/11/29 07:54:12;;;;;;;;;29.50;26.50;;;;;9.11;78.48;101143.47;5057397;28;46135;-61
2022/11/29 07:56:38;;;;;;;;;28.50;27.25;;;;;9.04;77.71;101134.91;5070318;27;45478;-62
2022/11/29 07:59:03;;;;;;;;;36.50;31.25;;;;;9.14;77.99;101152.19;5074038;27;45606;-62
2022/11/29 08:01:31;;;;;;;;;35.25;28.75;;;;;9.11;76.22;101143.47;5073498;27;45530;-62
2022/11/29 08:04:04;;;;;;;;;33.50;31.25;;;;;9.06;77.53;101142.78;5047476;28;48085;-61
2022/11/29 08:06:29;;;;;;;;;37.00;31.25;;;;;9.09;77.65;101158.56;5047095;28;45468;-62
2022/11/29 08:08:59;;;;;;;;;36.25;33.00;;;;;9.07;77.69;101157.78;5076078;28;45394;-62
2022/11/29 08:11:25;;;;;;;;;31.25;30.00;;;;;8.96;76.88;101152.91;5070176;27;45474;-63
2022/11/29 08:14:02;;;;;;;;;33.75;28.00;;;;;8.85;77.98;101156.03;5071909;28;46036;-63
2022/11/29 08:16:28;;;;;;;;;31.00;27.75;;;;;8.77;76.82;101152.78;5070445;27;45505;-62
2022/11/29 08:18:53;;;;;;;;;36.50;31.75;;;;;8.70;76.67;101161.03;5084784;27;45406;-62
2022/11/29 08:21:19;;;;;;;;;37.75;34.25;;;;;8.67;77.30;101172.63;5097271;27;45352;-62
2022/11/29 08:23:46;;;;;;;;;38.75;35.00;;;;;8.64;77.76;101178.06;5073613;27;46079;-63
2022/11/29 08:26:12;;;;;;;;;32.50;29.25;;;;;8.60;76.74;101178.25;5038436;28;45307;-63
2022/11/29 08:28:40;;;;;;;;;41.75;31.75;;;;;8.53;76.54;101182.91;5069525;27;45999;-63
2022/11/29 08:31:08;;;;;;;;;36.25;35.25;;;;;8.45;77.29;101183.19;5057202;28;45578;-64
2022/11/29 08:33:39;;;;;;;;;38.75;32.00;;;;;8.33;78.17;101167.72;5074346;27;45480;-64
2022/11/29 08:36:10;;;;;;;;;45.50;35.00;;;;;8.52;77.21;101190.00;5097534;27;45426;-63
2022/11/29 08:38:38;;;;;;;;;23.00;21.25;;;;;8.48;77.74;101198.13;5097062;27;45406;-62
2022/11/29 08:41:08;;;;;;;;;37.25;33.50;;;;;8.53;78.25;101201.47;5051438;28;45393;-62
2022/11/29 08:43:34;;;;;;;;;30.75;27.75;;;;;8.53;77.55;101196.16;5062741;27;45478;-63
2022/11/29 08:46:00;;;;;;;;;28.25;25.00;;;;;8.40;77.90;101201.06;5066353;27;45627;-63
2022/11/29 08:48:26;;;;;;;;;30.00;27.00;;;;;8.39;77.76;101201.13;5064226;27;48073;-62
2022/11/29 08:50:52;;;;;;;;;31.00;24.00;;;;;8.52;77.04;101221.81;5074762;27;46295;-62
2022/11/29 08:56:03;;;;;;;;;32.25;25.00;;;;;8.52;77.04;101231.56;5069721;28;45319;-64
2022/11/29 08:58:29;;;;;;;;;31.50;26.25;;;;;8.51;77.90;101232.47;5058167;28;45284;-64
2022/11/29 09:00:55;;;;;;;;;27.00;24.50;;;;;8.55;77.30;101237.59;5076011;27;45397;-61
2022/11/29 09:06:08;;;;;;;;;29.50;22.75;;;;;8.43;77.12;101231.88;5079363;27;45467;-63
2022/11/29 09:08:33;;;;;;;;;26.50;22.75;;;;;8.48;77.87;101240.56;5096151;27;45327;-60
2022/11/29 09:10:59;;;;;;;;;23.75;21.00;;;;;8.50;77.52;101244.00;5092905;27;45657;-66
2022/11/29 09:13:24;;;;;;;;;29.50;22.50;;;;;8.48;76.91;101241.41;5075390;28;45562;-62
2022/11/29 09:15:50;;;;;;;;;36.75;24.25;;;;;8.45;76.98;101240.63;5055952;28;45211;-63
2022/11/29 09:18:16;;;;;;;;;27.25;27.25;;;;;8.33;76.80;101246.34;5063372;28;45427;-62
2022/11/29 09:20:43;;;;;;;;;35.25;26.50;;;;;8.33;76.55;101246.34;5062450;28;45383;-62
2022/11/29 09:23:09;;;;;;;;;34.00;27.25;;;;;8.38;77.94;101257.69;5090495;27;45449;-62
2022/11/29 09:25:34;;;;;;;;;46.00;31.25;;;;;8.40;77.27;101248.78;5091288;27;45430;-59
2022/11/29 09:28:01;;;;;;;;;33.00;19.50;;;;;8.48;77.23;101267.06;5094732;27;45399;-62
2022/11/29 09:30:30;;;;;;;;;26.75;23.75;;;;;8.35;77.14;101255.16;5059929;28;45563;-62
2022/11/29 09:32:56;;;;;;;;;39.25;31.50;;;;;8.45;76.92;101283.91;5077688;28;45502;-61
2022/11/29 09:35:22;;;;;;;;;27.50;26.25;;;;;8.20;77.86;101270.66;5077943;28;45438;-62
2022/11/29 09:37:47;;;;;;;;;31.25;25.50;;;;;8.07;78.35;101258.75;5077516;28;45511;-62
2022/11/29 09:40:24;;;;;;;;;30.00;25.00;;;;;8.10;79.20;101279.00;5059651;28;45428;-62
2022/11/29 09:43:09;;;;;;;;;31.25;25.50;;;;;8.10;78.54;101292.25;5077380;27;46262;-62
2022/11/29 09:45:44;;;;;;;;;24.50;23.75;;;;;8.25;78.02;101297.84;5098079;27;45398;-60
2022/11/29 09:48:22;;;;;;;;;25.00;21.75;;;;;8.36;77.89;101294.88;5080422;27;45475;-62
2022/11/29 09:51:00;;;;;;;;;26.00;22.25;;;;;8.40;77.14;101285.88;5098647;27;45485;-61
2022/11/29 09:53:36;;;;;;;;;23.25;22.50;;;;;8.49;77.32;101301.47;5099594;27;45378;-62
2022/11/29 09:56:25;;;;;;;;;19.50;14.50;;;;;8.44;77.03;101302.53;5099382;27;45464;-60
2022/11/29 09:58:51;;;;;;;;;28.25;27.25;;;;;8.28;77.58;101308.34;5076037;27;45379;-61
2022/11/29 10:01:25;;;;;;;;;27.25;21.50;;;;;8.27;76.98;101314.56;5088604;27;45344;-62
2022/11/29 10:03:59;;;;;;;;;21.50;18.75;;;;;8.13;77.30;101316.84;5099339;27;46373;-61
2022/11/29 10:06:37;;;;;;;;;29.00;19.75;;;;;8.07;77.49;101308.22;5099019;27;45295;-62
2022/11/29 10:09:15;;;;;;;;;30.50;25.00;;;;;8.24;77.36;101330.59;5059393;28;45495;-61
2022/11/29 10:11:47;;;;;;;;;23.50;21.00;;;;;8.38;76.80;101326.63;5060443;28;45342;-61
2022/11/29 10:14:19;;;;;;;;;22.00;20.25;;;;;8.53;76.41;101328.72;5078710;27;45433;-61
2022/11/29 10:17:11;;;;;;;;;25.25;23.25;;;;;8.62;75.48;101325.75;5078242;27;45291;-61
2022/11/29 10:19:43;;;;;;;;;23.50;22.50;;;;;8.62;75.63;101328.41;5077948;27;45354;-62
2022/11/29 10:22:08;;;;;;;;;32.75;27.75;;;;;8.67;75.13;101321.13;5059840;28;45453;-61
2022/11/29 10:24:43;;;;;;;;;26.50;25.50;;;;;8.77;75.51;101327.81;5076866;28;45424;-61
2022/11/29 10:27:20;;;;;;;;;30.75;27.50;;;;;8.84;75.24;101324.00;5082365;28;45260;-63
2022/11/29 10:29:49;;;;;;;;;36.00;30.00;;;;;8.95;75.20;101322.75;5064255;28;45270;-62
2022/11/29 10:32:20;;;;;;;;;20.00;16.50;;;;;9.01;74.78;101327.84;5080342;27;45572;-62
2022/11/29 10:34:51;;;;;;;;;26.50;26.25;;;;;8.85;73.98;101293.94;5061640;28;45531;-62
2022/11/29 10:37:20;;;;;;;;;37.00;27.25;;;;;9.14;74.62;101335.28;5080096;27;45370;-62
2022/11/29 10:40:00;;;;;;;;;35.50;30.50;;;;;9.20;73.21;101336.81;5080494;28;45291;-64
2022/11/29 10:45:37;;;;;;;;;37.50;31.25;;;;;9.24;73.49;101345.53;5099031;27;45456;-61
2022/11/29 10:48:11;;;;;;;;;30.50;24.25;;;;;9.22;72.68;101328.78;5098505;27;45315;-61
2022/11/29 10:50:42;;;;;;;;;49.25;38.00;;;;;9.19;72.50;101339.53;5098327;27;45285;-62
2022/11/29 10:53:17;;;;;;;;;36.25;29.25;;;;;9.18;72.30;101333.38;5077454;27;45422;-62
2022/11/29 10:56:15;;;;;;;;;31.00;26.75;;;;;9.14;73.00;101331.75;5075765;28;45512;-61
2022/11/29 10:58:57;;;;;;;;;31.75;27.50;;;;;9.28;73.65;101332.09;5058708;28;45286;-64
2022/11/29 11:01:26;;;;;;;;;29.75;26.00;;;;;9.36;72.23;101332.63;5071514;27;45521;-62
2022/11/29 11:03:57;;;;;;;;;37.50;32.50;;;;;9.41;72.84;101330.69;5062816;28;45398;-62
2022/11/29 11:06:55;;;;;;;;;40.00;33.75;;;;;9.43;73.01;101344.75;5071945;28;46205;-61
2022/11/29 11:09:28;;;;;;;;;37.00;29.50;;;;;9.46;72.20;101335.81;5075311;28;45413;-62
2022/11/29 11:12:00;;;;;;;;;34.75;30.75;;;;;9.51;71.57;101335.63;5075820;27;45348;-61
2022/11/29 11:14:25;;;;;;;;;39.25;33.00;;;;;9.56;72.58;101338.97;5074819;28;45422;-60
2022/11/29 11:16:52;;;;;;;;;34.75;28.75;;;;;9.57;72.15;101332.72;5083829;27;46060;-61
2022/11/29 11:19:24;;;;;;;;;33.25;27.75;;;;;9.60;70.94;101336.13;5073592;27;45821;-63
2022/11/29 11:21:50;;;;;;;;;34.00;31.00;;;;;9.62;71.57;101336.06;5043349;28;45410;-61
2022/11/29 11:24:29;;;;;;;;;32.75;30.50;;;;;9.62;70.87;101334.25;5076423;27;45529;-62
2022/11/29 11:26:55;;;;;;;;;47.25;32.50;;;;;9.66;70.83;101343.00;5077713;27;45426;-65
2022/11/29 11:29:26;;;;;;;;;30.75;28.25;;;;;9.72;71.25;101343.59;5083904;27;45234;-62
2022/11/29 11:31:57;;;;;;;;;31.75;30.50;;;;;9.80;71.75;101337.97;5076503;28;45494;-62
2022/11/29 11:34:35;;;;;;;;;35.00;32.00;;;;;9.88;71.02;101343.81;5062258;27;45374;-60
2022/11/29 11:37:30;;;;;;;;;38.75;35.25;;;;;9.94;70.85;101346.25;5061967;27;46290;-62
2022/11/29 11:39:59;;;;;;;;;33.25;29.00;;;;;9.98;70.38;101339.88;5070286;28;45405;-61
2022/11/29 11:42:37;;;;;;;;;33.50;30.00;;;;;10.03;70.26;101340.56;5056538;28;45339;-61
2022/11/29 11:45:10;;;;;;;;;34.00;30.75;;;;;9.97;70.17;101334.63;5038274;28;45321;-60
2022/11/29 11:47:41;;;;;;;;;30.00;29.75;;;;;9.96;69.93;101335.53;5079809;27;47119;-62
2022/11/29 11:50:13;;;;;;;;;34.50;24.50;;;;;9.97;70.03;101334.63;5054278;28;45666;-62
2022/11/29 11:52:41;;;;;;;;;26.00;21.25;;;;;10.03;70.64;101343.22;5073177;28;45380;-61
2022/11/29 11:55:39;;;;;;;;;34.50;30.50;;;;;10.05;69.85;101340.50;5066042;28;45655;-62
2022/11/29 11:58:10;;;;;;;;;26.50;24.00;;;;;10.05;70.11;101338.69;5079582;27;45465;-61
2022/11/29 12:00:49;;;;;;;;;31.50;29.00;;;;;10.10;70.16;101329.66;5084866;27;45440;-61
2022/11/29 12:03:38;;;;;;;;;26.00;25.75;;;;;10.16;69.97;101345.34;5086841;27;45550;-63
2022/11/29 12:06:25;;;;;;;;;37.25;32.75;;;;;10.19;69.56;101339.91;5089733;27;45296;-62
2022/11/29 12:08:57;;;;;;;;;37.75;32.25;;;;;10.09;70.35;101334.09;5078869;27;45435;-60